עמוד ראשי
METAR-TAF:

METAR-TAF

שדות תעופה :

São Gabriel da Cachoeira, אמזונאס, ברזיל

קו רוחב: 00-08S, קו אורך: 067-05W, גובה: 90מטר

תצפית מזג אוויר נוכחית

הדו"ח נערך לפני 5 שעות ו 55דקות, בשעה 19:00 UTC
רוח 4קשר מכיוון דרום-מזרח
טמפרטורת 27 צלסיוס
לחות 89%
לחץ 1011 hPa
ראות 10 קילומטר או יותר
מעט עננים בגובה 1200רגל

METAR: SBUA 121900Z 13004KT 9999 FEW012 27/25 Q1011

זמן: 20:55 (00:55 UTC)


TAF: חסר

תצפיות ותחזיות מזג אוויר לגבי יותר מ- 4,000 שדות תעופה ברחבי העולם. דוחות METAR ו- TAF.

התחנות הזמינות מסומנות בנקודות צהובות ואדומות על גבי המפה.

העבר את העכבר לנקודה הצבעונית על מנת לראות את שם התחנה.

לאחר מכן, לחץ כדי לראות את תוכן ואת תחזיות מזג האוויר.

כדי לשנות את המפה: לחץ על הכפתורים הירוקים עם הפלוס השחור כדי להתקרב; על הכפתור הירוק עם המקף כדי להתרחק; או בחיצים הירוקים למפות סמוכות.


METAR-TAF: